Terminal Aerodrome Forecast
Issued by NWS Sterling, VA

Current Version | Previous Version | Graphics & Text | Print | Product List | Glossary On
Versions: 1 2 3 4 5 6 7 8 9 10 11 12 13 14 15 16 17 18
455
FTUS41 KLWX 232320
TAFMRB
TAF
KMRB 232320Z 2400/2424 30007KT P6SM FEW250
     FM240300 VRB03KT P6SM FEW250
     FM240900 00000KT 6SM BR SKC
     FM241200 VRB03KT P6SM SKC
     FM241600 01005KT P6SM SKC=

USA.gov is the U.S. government's official web portal to all federal, state and local government web resources and services.